Time;durP1;ratioP1;P1;durP2;ratioP2;P2;SDS_P1;SDS_P2;PMS_P1;PMS_P2;Temp;Humidity;BMP_temperature;BMP_pressure;BME280_temperature;BME280_humidity;BME280_pressure;Samples;Min_cycle;Max_cycle;Signal;HPM_P1;HPM_P2
2022/04/22 00:01:13;;;;;;;5.83;5.40;;;;;;;;;;5055594;28;20410;-68
2022/04/22 00:03:39;;;;;;;5.43;5.23;;;;;;;;;;5055589;28;20460;-66
2022/04/22 00:06:05;;;;;;;7.53;5.80;;;;;;;;;;5055604;28;20894;-67
2022/04/22 00:08:32;;;;;;;6.43;6.13;;;;;;;;;;5055536;28;20415;-67
2022/04/22 00:13:43;;;;;;;6.50;5.90;;;;;;;;;;5055683;28;20410;-67
2022/04/22 00:16:09;;;;;;;6.23;5.93;;;;;;;;;;5055626;28;20498;-67
2022/04/22 00:18:35;;;;;;;7.00;6.27;;;;;;;;;;5055354;28;20472;-67
2022/04/22 00:21:01;;;;;;;5.60;5.30;;;;;;;;;;5055320;28;20399;-68
2022/04/22 00:23:27;;;;;;;7.00;6.40;;;;;;;;;;5055305;28;20434;-69
2022/04/22 00:25:54;;;;;;;6.03;5.53;;;;;;;;;;5055273;28;20867;-68
2022/04/22 00:28:20;;;;;;;6.83;6.20;;;;;;;;;;5055165;28;20858;-68
2022/04/22 00:30:47;;;;;;;6.70;6.40;;;;;;;;;;5055165;28;20438;-68
2022/04/22 00:33:13;;;;;;;6.73;6.43;;;;;;;;;;5055281;28;20771;-68
2022/04/22 00:35:39;;;;;;;6.33;5.97;;;;;;;;;;5055124;28;20406;-68
2022/04/22 00:38:05;;;;;;;6.47;5.87;;;;;;;;;;5054926;28;20454;-68
2022/04/22 00:40:31;;;;;;;7.20;6.13;;;;;;;;;;5054729;28;21056;-68
2022/04/22 00:42:57;;;;;;;7.87;7.33;;;;;;;;;;5053602;28;20477;-68
2022/04/22 00:45:23;;;;;;;6.23;6.03;;;;;;;;;;5054818;28;20749;-68
2022/04/22 00:47:49;;;;;;;7.53;6.93;;;;;;;;;;5054821;28;20399;-68
2022/04/22 00:50:15;;;;;;;6.77;6.57;;;;;;;;;;5054827;28;20410;-68
2022/04/22 00:52:42;;;;;;;7.87;6.87;;;;;;;;;;5054677;28;20913;-69
2022/04/22 00:55:09;;;;;;;7.50;7.10;;;;;;;;;;5054757;28;20772;-69
2022/04/22 00:57:35;;;;;;;6.90;6.50;;;;;;;;;;5054028;28;20410;-68
2022/04/22 01:00:02;;;;;;;6.70;6.27;;;;;;;;;;5054582;28;20430;-67
2022/04/22 01:02:28;;;;;;;7.17;6.77;;;;;;;;;;5054770;28;20407;-68
2022/04/22 01:10:23;;;;;;;10.23;8.17;;;;;;;;;;5054630;28;20421;-66
2022/04/22 01:12:49;;;;;;;8.80;8.00;;;;;;;;;;5054234;28;20426;-67
2022/04/22 01:15:15;;;;;;;8.87;8.17;;;;;;;;;;5052910;28;20439;-67
2022/04/22 01:17:41;;;;;;;9.10;8.30;;;;;;;;;;5054068;28;20998;-66
2022/04/22 01:20:07;;;;;;;7.43;7.03;;;;;;;;;;5054192;28;20408;-68
2022/04/22 01:22:33;;;;;;;8.10;7.20;;;;;;;;;;5054114;28;20407;-67
2022/04/22 01:25:03;;;;;;;8.60;7.90;;;;;;;;;;5053943;28;20433;-68
2022/04/22 01:27:29;;;;;;;7.57;6.97;;;;;;;;;;5054062;28;20871;-67
2022/04/22 01:29:58;;;;;;;7.87;7.27;;;;;;;;;;5054046;28;20423;-67
2022/04/22 01:32:26;;;;;;;7.30;6.90;;;;;;;;;;5052697;28;20415;-67
2022/04/22 01:34:52;;;;;;;7.23;6.83;;;;;;;;;;5053827;28;20403;-68
2022/04/22 01:37:18;;;;;;;7.80;7.30;;;;;;;;;;5053788;28;20552;-68
2022/04/22 01:39:44;;;;;;;7.10;6.63;;;;;;;;;;5053635;28;20960;-67
2022/04/22 01:42:10;;;;;;;8.57;7.00;;;;;;;;;;5053596;28;20490;-68
2022/04/22 01:44:36;;;;;;;8.10;7.60;;;;;;;;;;5053769;28;20464;-67
2022/04/22 01:47:02;;;;;;;8.20;7.47;;;;;;;;;;5052414;28;20500;-67
2022/04/22 01:49:29;;;;;;;8.30;7.70;;;;;;;;;;5053833;28;20421;-68
2022/04/22 01:51:55;;;;;;;7.53;6.97;;;;;;;;;;5053640;28;20503;-68
2022/04/22 01:54:21;;;;;;;7.20;6.80;;;;;;;;;;5053515;28;20427;-69
2022/04/22 01:56:47;;;;;;;9.07;8.37;;;;;;;;;;5052254;28;20409;-68
2022/04/22 01:59:13;;;;;;;7.97;7.40;;;;;;;;;;5053413;28;20953;-68
2022/04/22 02:01:39;;;;;;;7.60;7.20;;;;;;;;;;5052218;28;20461;-68
2022/04/22 02:04:05;;;;;;;7.03;6.73;;;;;;;;;;5053483;28;20389;-69
2022/04/22 02:06:32;;;;;;;8.27;7.77;;;;;;;;;;5053409;28;20498;-68
2022/04/22 02:08:58;;;;;;;7.10;6.70;;;;;;;;;;5052552;28;20403;-68
2022/04/22 02:11:24;;;;;;;9.60;7.83;;;;;;;;;;5053388;28;20465;-68
2022/04/22 02:13:50;;;;;;;8.10;7.30;;;;;;;;;;5053307;28;20378;-68
2022/04/22 02:16:16;;;;;;;7.37;6.97;;;;;;;;;;5053301;28;20960;-68
2022/04/22 02:18:42;;;;;;;8.00;7.43;;;;;;;;;;5051830;28;20472;-68
2022/04/22 02:21:09;;;;;;;7.33;6.70;;;;;;;;;;5053452;28;20382;-68
2022/04/22 02:23:35;;;;;;;7.90;7.50;;;;;;;;;;5053207;28;20407;-69
2022/04/22 02:26:02;;;;;;;9.50;7.83;;;;;;;;;;5053305;28;20430;-68
2022/04/22 02:28:31;;;;;;;7.27;6.93;;;;;;;;;;5053225;28;20391;-68
2022/04/22 02:30:57;;;;;;;8.40;7.80;;;;;;;;;;5053289;28;20446;-68
2022/04/22 02:33:23;;;;;;;9.13;8.20;;;;;;;;;;5053180;28;20757;-67
2022/04/22 02:35:49;;;;;;;9.50;8.70;;;;;;;;;;5053178;28;20891;-68
2022/04/22 02:38:15;;;;;;;8.67;7.90;;;;;;;;;;5053048;28;20853;-67
2022/04/22 02:46:10;;;;;;;8.30;7.80;;;;;;;;;;5053048;28;20445;-67
2022/04/22 02:48:38;;;;;;;8.00;7.40;;;;;;;;;;5053235;28;20377;-68
2022/04/22 02:51:07;;;;;;;8.17;7.40;;;;;;;;;;5053058;28;20429;-68
2022/04/22 02:53:33;;;;;;;9.47;8.67;;;;;;;;;;5052908;28;20465;-68
2022/04/22 02:55:59;;;;;;;11.27;7.90;;;;;;;;;;5052998;28;20411;-68
2022/04/22 02:58:25;;;;;;;8.70;8.10;;;;;;;;;;5052879;28;20493;-67
2022/04/22 03:00:51;;;;;;;8.30;7.80;;;;;;;;;;5052918;28;20407;-68
2022/04/22 03:03:17;;;;;;;7.70;7.20;;;;;;;;;;5052892;28;20399;-69
2022/04/22 03:05:43;;;;;;;7.77;7.17;;;;;;;;;;5052907;28;20414;-67
2022/04/22 03:08:12;;;;;;;8.63;7.73;;;;;;;;;;5052832;28;20411;-67
2022/04/22 03:10:38;;;;;;;8.03;7.43;;;;;;;;;;5053025;28;20906;-67
2022/04/22 03:13:04;;;;;;;8.90;7.60;;;;;;;;;;5052773;28;20411;-68
2022/04/22 03:15:32;;;;;;;8.50;7.80;;;;;;;;;;5052694;28;20399;-68
2022/04/22 03:17:58;;;;;;;7.80;7.10;;;;;;;;;;5052559;28;20454;-68
2022/04/22 03:20:25;;;;;;;7.43;6.80;;;;;;;;;;5053985;28;20894;-65
2022/04/22 03:22:51;;;;;;;7.60;7.10;;;;;;;;;;5056306;28;20377;-67
2022/04/22 03:25:20;;;;;;;8.90;7.93;;;;;;;;;;5056243;28;20880;-66
2022/04/22 03:27:46;;;;;;;9.93;7.60;;;;;;;;;;5056200;28;20903;-67
2022/04/22 03:30:12;;;;;;;7.43;6.60;;;;;;;;;;5056419;28;20419;-68
2022/04/22 03:32:38;;;;;;;7.10;6.60;;;;;;;;;;5056216;28;20498;-68
2022/04/22 03:35:04;;;;;;;8.20;6.70;;;;;;;;;;5056109;28;20450;-68
2022/04/22 03:37:31;;;;;;;6.20;5.93;;;;;;;;;;5056235;28;20535;-67
2022/04/22 03:39:57;;;;;;;7.43;6.93;;;;;;;;;;5056078;28;20394;-68
2022/04/22 03:42:23;;;;;;;7.20;6.40;;;;;;;;;;5054563;28;20478;-68
2022/04/22 03:44:49;;;;;;;9.93;7.60;;;;;;;;;;5055922;28;20394;-68
2022/04/22 03:47:15;;;;;;;8.37;6.53;;;;;;;;;;5055811;28;20407;-68
2022/04/22 03:49:41;;;;;;;7.77;7.20;;;;;;;;;;5055816;28;20908;-68
2022/04/22 03:52:08;;;;;;;7.17;6.57;;;;;;;;;;5055797;28;20498;-69
2022/04/22 03:54:34;;;;;;;26.67;19.73;;;;;;;;;;5055728;28;20442;-69
2022/04/22 03:59:44;;;;;;;7.30;6.90;;;;;;;;;;5055576;28;20635;-69
2022/04/22 04:02:13;;;;;;;6.97;6.57;;;;;;;;;;5055621;28;20487;-68
2022/04/22 04:04:39;;;;;;;22.03;7.13;;;;;;;;;;5054308;28;20437;-68
2022/04/22 04:07:05;;;;;;;7.47;6.77;;;;;;;;;;5055571;28;20476;-68
2022/04/22 04:17:44;;;;;;;6.70;6.30;;;;;;;;;;5055493;28;20407;-68
2022/04/22 04:25:40;;;;;;;7.83;7.13;;;;;;;;;;5055158;28;20443;-69
2022/04/22 04:28:09;;;;;;;8.03;7.43;;;;;;;;;;5055146;28;20397;-67
2022/04/22 04:30:35;;;;;;;11.50;7.27;;;;;;;;;;5055056;28;20407;-68
2022/04/22 04:33:01;;;;;;;7.57;6.53;;;;;;;;;;5054215;28;20393;-68
2022/04/22 04:35:27;;;;;;;8.50;7.80;;;;;;;;;;5055293;28;20426;-69
2022/04/22 04:37:53;;;;;;;12.87;7.40;;;;;;;;;;5054911;28;20812;-68
2022/04/22 04:40:19;;;;;;;7.40;7.00;;;;;;;;;;5054662;28;20504;-69
2022/04/22 04:42:45;;;;;;;7.30;6.80;;;;;;;;;;5054858;28;20411;-66
2022/04/22 04:45:12;;;;;;;8.00;7.17;;;;;;;;;;5054815;28;20496;-66
2022/04/22 04:47:40;;;;;;;8.17;6.80;;;;;;;;;;5054782;28;20370;-66
2022/04/22 04:50:06;;;;;;;12.43;7.23;;;;;;;;;;5054721;28;20477;-66
2022/04/22 04:52:33;;;;;;;8.30;7.50;;;;;;;;;;5054683;28;20431;-66
2022/04/22 04:54:59;;;;;;;8.10;7.50;;;;;;;;;;5054658;28;20513;-66
2022/04/22 04:57:25;;;;;;;9.47;8.30;;;;;;;;;;5053347;28;20427;-69
2022/04/22 04:59:51;;;;;;;8.47;7.77;;;;;;;;;;5054442;28;20492;-69
2022/04/22 05:02:17;;;;;;;8.50;7.77;;;;;;;;;;5053104;28;20914;-69
2022/04/22 05:04:43;;;;;;;8.30;7.77;;;;;;;;;;5054435;28;20502;-69
2022/04/22 05:07:09;;;;;;;8.03;7.47;;;;;;;;;;5054457;28;20435;-69
2022/04/22 05:09:35;;;;;;;9.73;8.03;;;;;;;;;;5054270;28;20435;-69
2022/04/22 05:12:01;;;;;;;8.47;7.87;;;;;;;;;;5054290;28;20777;-69
2022/04/22 05:14:27;;;;;;;9.40;8.60;;;;;;;;;;5052977;28;20426;-68
2022/04/22 05:16:54;;;;;;;8.23;7.70;;;;;;;;;;5054242;28;20411;-69
2022/04/22 05:19:21;;;;;;;8.90;8.00;;;;;;;;;;5054362;28;20479;-68
2022/04/22 05:21:48;;;;;;;8.73;8.10;;;;;;;;;;5054184;28;20391;-69
2022/04/22 05:24:14;;;;;;;9.23;8.57;;;;;;;;;;5054091;28;20792;-66
2022/04/22 05:26:40;;;;;;;9.40;8.57;;;;;;;;;;5054174;28;20418;-69
2022/04/22 05:32:36;;;;;;;9.90;8.87;;;;;;;;;;5054115;28;20422;-68
2022/04/22 05:34:36;;;;;;;12.90;8.90;;;;;;;;;;5054030;28;20396;-68
2022/04/22 05:37:02;;;;;;;10.17;9.37;;;;;;;;;;5054079;28;20403;-69
2022/04/22 05:39:28;;;;;;;9.23;8.23;;;;;;;;;;5054071;28;20914;-73
2022/04/22 05:41:55;;;;;;;10.57;9.50;;;;;;;;;;5053876;28;20466;-69
2022/04/22 05:44:21;;;;;;;9.40;8.63;;;;;;;;;;5053858;28;20411;-70
2022/04/22 05:46:48;;;;;;;12.00;9.20;;;;;;;;;;5053983;28;20882;-69
2022/04/22 05:49:14;;;;;;;11.30;9.33;;;;;;;;;;5054067;28;20399;-70
2022/04/22 05:51:40;;;;;;;11.20;9.03;;;;;;;;;;5053938;28;20490;-69
2022/04/22 05:54:06;;;;;;;11.60;9.70;;;;;;;;;;5053845;28;20964;-71
2022/04/22 05:56:32;;;;;;;12.03;10.90;;;;;;;;;;5053847;28;20901;-68
2022/04/22 05:58:58;;;;;;;10.77;9.63;;;;;;;;;;5053686;28;20473;-69
2022/04/22 06:01:25;;;;;;;11.37;10.40;;;;;;;;;;5053565;28;20419;-70
2022/04/22 06:03:51;;;;;;;12.13;11.00;;;;;;;;;;5053541;28;20612;-71
2022/04/22 06:06:17;;;;;;;12.27;11.17;;;;;;;;;;5053702;28;20417;-71
2022/04/22 06:11:27;;;;;;;12.23;10.93;;;;;;;;;;5053665;28;20894;-67
2022/04/22 06:13:53;;;;;;;11.93;10.73;;;;;;;;;;5053415;28;20399;-67
2022/04/22 06:16:19;;;;;;;12.83;11.53;;;;;;;;;;5053480;28;20431;-68
2022/04/22 06:18:45;;;;;;;14.10;12.53;;;;;;;;;;5053205;28;20513;-67
2022/04/22 06:21:11;;;;;;;13.20;11.30;;;;;;;;;;5053258;28;20740;-70
2022/04/22 06:23:38;;;;;;;12.80;11.50;;;;;;;;;;5053235;28;20399;-72
2022/04/22 06:26:04;;;;;;;13.80;12.40;;;;;;;;;;5051993;28;20458;-72
2022/04/22 06:28:30;;;;;;;13.53;11.43;;;;;;;;;;5053265;28;20454;-74
2022/04/22 06:30:56;;;;;;;14.30;11.50;;;;;;;;;;5053154;28;20403;-72
2022/04/22 06:33:22;;;;;;;13.30;12.00;;;;;;;;;;5053233;28;20897;-76
2022/04/22 06:35:48;;;;;;;28.47;12.03;;;;;;;;;;5051955;28;20419;-74
2022/04/22 06:38:18;;;;;;;13.20;11.87;;;;;;;;;;5051789;28;20463;-73
2022/04/22 06:46:18;;;;;;;19.90;12.73;;;;;;;;;;5053221;28;20423;-72
2022/04/22 06:48:44;;;;;;;13.87;12.37;;;;;;;;;;5053144;28;20472;-70
2022/04/22 06:51:11;;;;;;;17.80;12.90;;;;;;;;;;5053325;28;20407;-71
2022/04/22 06:53:37;;;;;;;15.03;13.63;;;;;;;;;;5052981;28;20870;-70
2022/04/22 06:56:06;;;;;;;24.60;13.77;;;;;;;;;;5055622;28;20407;-74
2022/04/22 06:58:33;;;;;;;14.37;13.07;;;;;;;;;;5057085;28;20588;-73
2022/04/22 07:00:59;;;;;;;15.40;13.90;;;;;;;;;;5056903;28;20411;-71
2022/04/22 07:03:25;;;;;;;15.13;13.50;;;;;;;;;;5056827;28;20414;-73
2022/04/22 07:05:52;;;;;;;15.00;13.53;;;;;;;;;;5056896;28;20870;-75
2022/04/22 07:08:19;;;;;;;15.33;13.70;;;;;;;;;;5057028;28;20467;-78
2022/04/22 07:10:46;;;;;;;15.27;12.73;;;;;;;;;;5056509;28;20426;-76
2022/04/22 07:13:13;;;;;;;16.00;14.30;;;;;;;;;;5056594;28;20410;-76
2022/04/22 07:15:39;;;;;;;14.37;12.97;;;;;;;;;;5056579;28;20431;-76
2022/04/22 07:18:06;;;;;;;15.03;13.53;;;;;;;;;;5055262;28;20477;-75
2022/04/22 07:20:32;;;;;;;15.07;13.57;;;;;;;;;;5056564;28;20439;-72
2022/04/22 07:22:59;;;;;;;14.90;13.20;;;;;;;;;;5056389;28;20875;-74
2022/04/22 07:25:26;;;;;;;15.87;13.53;;;;;;;;;;5055094;28;20438;-69
2022/04/22 07:27:52;;;;;;;15.07;13.57;;;;;;;;;;5056320;28;20506;-71
2022/04/22 07:30:20;;;;;;;14.47;12.80;;;;;;;;;;5056287;28;21005;-77
2022/04/22 07:32:46;;;;;;;17.10;14.20;;;;;;;;;;5055023;28;20450;-74
2022/04/22 07:35:13;;;;;;;15.60;13.20;;;;;;;;;;5056198;28;20408;-74
2022/04/22 07:37:59;;;;;;;14.83;13.43;;;;;;;;;;5056130;28;20780;-73
2022/04/22 07:40:25;;;;;;;15.03;13.53;;;;;;;;;;5055952;28;20541;-74
2022/04/22 07:48:36;;;;;;;17.60;13.97;;;;;;;;;;5043849;28;20423;-73
2022/04/22 07:51:02;;;;;;;15.37;13.97;;;;;;;;;;5054653;28;20485;-76
2022/04/22 07:53:28;;;;;;;21.70;13.43;;;;;;;;;;5054479;28;21116;-70
2022/04/22 07:55:54;;;;;;;14.67;13.27;;;;;;;;;;5055804;28;20418;-74
2022/04/22 07:58:20;;;;;;;14.63;13.03;;;;;;;;;;5055690;28;20458;-76
2022/04/22 08:00:46;;;;;;;15.67;12.87;;;;;;;;;;5055742;28;20399;-69
2022/04/22 08:03:13;;;;;;;14.40;12.90;;;;;;;;;;5055681;28;20391;-75
2022/04/22 08:05:39;;;;;;;14.13;12.83;;;;;;;;;;5055863;28;20775;-73
2022/04/22 08:08:06;;;;;;;15.63;12.80;;;;;;;;;;5053132;28;20419;-76
2022/04/22 08:10:32;;;;;;;14.00;12.27;;;;;;;;;;5054250;28;20837;-76
2022/04/22 08:12:58;;;;;;;12.90;11.80;;;;;;;;;;5055584;28;20598;-72
2022/04/22 08:15:24;;;;;;;24.93;12.90;;;;;;;;;;5055537;28;20411;-75
2022/04/22 08:17:50;;;;;;;15.50;12.13;;;;;;;;;;5055380;28;20407;-76
2022/04/22 08:20:16;;;;;;;14.67;13.20;;;;;;;;;;5055356;28;20453;-70
2022/04/22 08:22:45;;;;;;;14.93;12.53;;;;;;;;;;5055300;28;20407;-72
2022/04/22 08:25:12;;;;;;;15.73;14.13;;;;;;;;;;5055849;28;20418;-69
2022/04/22 08:27:38;;;;;;;14.80;13.50;;;;;;;;;;5055369;28;20476;-69
2022/04/22 08:30:05;;;;;;;13.23;12.03;;;;;;;;;;5055280;28;20403;-69
2022/04/22 08:32:31;;;;;;;14.57;12.87;;;;;;;;;;5055291;28;20415;-70
2022/04/22 08:34:57;;;;;;;13.37;12.07;;;;;;;;;;5055169;28;20549;-70
2022/04/22 08:37:23;;;;;;;15.13;13.73;;;;;;;;;;5055143;28;20886;-70
2022/04/22 08:39:49;;;;;;;14.33;12.83;;;;;;;;;;5054907;28;20537;-69
2022/04/22 08:42:16;;;;;;;14.13;12.83;;;;;;;;;;5054855;28;20822;-70
2022/04/22 08:44:42;;;;;;;13.40;12.10;;;;;;;;;;5054923;28;20415;-69
2022/04/22 08:49:59;;;;;;;14.93;13.50;;;;;;;;;;5055134;28;20398;-69
2022/04/22 08:52:25;;;;;;;14.13;12.83;;;;;;;;;;5054854;28;20399;-70
2022/04/22 08:54:53;;;;;;;15.13;13.73;;;;;;;;;;5054791;28;20418;-69
2022/04/22 08:57:20;;;;;;;14.90;13.27;;;;;;;;;;5054974;28;20406;-70
2022/04/22 08:59:46;;;;;;;14.93;13.53;;;;;;;;;;5053187;28;20524;-70
2022/04/22 09:02:15;;;;;;;15.00;13.50;;;;;;;;;;5054649;28;20405;-74
2022/04/22 09:04:41;;;;;;;14.10;12.90;;;;;;;;;;5054497;28;20505;-75
2022/04/22 09:07:12;;;;;;;17.27;13.30;;;;;;;;;;5054733;28;20430;-76
2022/04/22 09:09:39;;;;;;;14.23;12.80;;;;;;;;;;5054630;28;20760;-74
2022/04/22 09:12:09;;;;;;;15.17;13.87;;;;;;;;;;5054751;28;20395;-78
2022/04/22 09:14:35;;;;;;;16.67;14.13;;;;;;;;;;5054662;28;20465;-74
2022/04/22 09:17:01;;;;;;;15.13;13.60;;;;;;;;;;5054304;28;20414;-74
2022/04/22 09:19:33;;;;;;;14.67;12.87;;;;;;;;;;5054111;28;20462;-72
2022/04/22 09:22:01;;;;;;;14.17;12.37;;;;;;;;;;5054182;28;20470;-68
2022/04/22 09:24:27;;;;;;;17.73;14.00;;;;;;;;;;5054112;28;20415;-69
2022/04/22 09:27:08;;;;;;;17.17;12.80;;;;;;;;;;5053979;28;20407;-69
2022/04/22 09:29:41;;;;;;;13.70;12.30;;;;;;;;;;5054087;28;20418;-69
2022/04/22 09:32:09;;;;;;;16.27;13.40;;;;;;;;;;5052765;28;20922;-71
2022/04/22 09:34:37;;;;;;;13.87;12.27;;;;;;;;;;5053963;28;20989;-70
2022/04/22 09:42:47;;;;;;;13.73;12.47;;;;;;;;;;5053724;28;20420;-67
2022/04/22 09:45:14;;;;;;;12.67;11.57;;;;;;;;;;5053642;28;20401;-71
2022/04/22 09:47:40;;;;;;;13.60;12.50;;;;;;;;;;5053589;28;20397;-71
2022/04/22 09:50:10;;;;;;;13.70;12.40;;;;;;;;;;5053724;28;20432;-73
2022/04/22 09:52:38;;;;;;;14.77;13.37;;;;;;;;;;5053740;28;20389;-69
2022/04/22 09:55:10;;;;;;;12.83;11.67;;;;;;;;;;5053790;28;20425;-68
2022/04/22 09:57:52;;;;;;;18.93;12.33;;;;;;;;;;5053638;28;20398;-64
2022/04/22 10:00:18;;;;;;;14.70;13.20;;;;;;;;;;5053498;28;20974;-69
2022/04/22 10:02:47;;;;;;;14.67;13.30;;;;;;;;;;5053504;28;20916;-71
2022/04/22 10:05:13;;;;;;;14.33;13.07;;;;;;;;;;5053583;28;20453;-68
2022/04/22 10:07:42;;;;;;;15.60;14.00;;;;;;;;;;5053418;28;20866;-69
2022/04/22 10:10:08;;;;;;;14.30;13.07;;;;;;;;;;5052404;28;20838;-68
2022/04/22 10:12:34;;;;;;;15.93;14.33;;;;;;;;;;5053447;28;20417;-67
2022/04/22 10:15:01;;;;;;;18.53;13.73;;;;;;;;;;5053344;28;20448;-68
2022/04/22 10:17:27;;;;;;;16.47;14.47;;;;;;;;;;5053436;28;20418;-69
2022/04/22 10:19:54;;;;;;;16.67;14.90;;;;;;;;;;5053264;28;20553;-71
2022/04/22 10:22:21;;;;;;;18.87;13.40;;;;;;;;;;5053318;28;20409;-74
2022/04/22 10:24:47;;;;;;;15.70;14.30;;;;;;;;;;5053512;28;20414;-73
2022/04/22 10:27:14;;;;;;;15.50;14.13;;;;;;;;;;5053555;28;20410;-69
2022/04/22 10:29:42;;;;;;;15.40;13.77;;;;;;;;;;5053693;28;20411;-71
2022/04/22 10:32:09;;;;;;;15.90;14.17;;;;;;;;;;5057304;28;20444;-69
2022/04/22 10:34:39;;;;;;;17.23;14.33;;;;;;;;;;5057442;28;20410;-72
2022/04/22 10:37:06;;;;;;;15.70;14.20;;;;;;;;;;5057252;28;20406;-79
2022/04/22 10:39:34;;;;;;;15.03;13.63;;;;;;;;;;5056088;28;20639;-70
2022/04/22 10:42:00;;;;;;;24.93;14.70;;;;;;;;;;5057132;28;21013;-71
2022/04/22 10:47:13;;;;;;;15.70;14.10;;;;;;;;;;5057112;28;20471;-72
2022/04/22 10:49:43;;;;;;;16.63;15.00;;;;;;;;;;5057025;28;20921;-73
2022/04/22 10:52:19;;;;;;;15.80;14.33;;;;;;;;;;5055795;28;20422;-70
2022/04/22 10:54:54;;;;;;;15.87;14.10;;;;;;;;;;5057024;28;20438;-69
2022/04/22 10:57:24;;;;;;;15.37;14.00;;;;;;;;;;5056839;28;20480;-69
2022/04/22 11:00:09;;;;;;;16.97;15.40;;;;;;;;;;5056806;28;20949;-71
2022/04/22 11:02:37;;;;;;;15.43;13.80;;;;;;;;;;5056864;28;20403;-70
2022/04/22 11:05:19;;;;;;;29.03;15.07;;;;;;;;;;5056903;28;20514;-74
2022/04/22 11:07:53;;;;;;;18.83;13.80;;;;;;;;;;5056901;28;20414;-74
2022/04/22 11:10:20;;;;;;;15.03;13.73;;;;;;;;;;5056545;28;20421;-74
2022/04/22 11:12:53;;;;;;;16.97;15.37;;;;;;;;;;5056521;28;20906;-75
2022/04/22 11:15:38;;;;;;;16.83;15.23;;;;;;;;;;5056461;28;20446;-72
2022/04/22 11:18:04;;;;;;;16.57;14.80;;;;;;;;;;5056458;28;20898;-75
2022/04/22 11:20:30;;;;;;;20.10;15.87;;;;;;;;;;5056535;28;20428;-71
2022/04/22 11:22:56;;;;;;;21.53;14.07;;;;;;;;;;5056783;28;20397;-73
2022/04/22 11:25:25;;;;;;;15.53;14.13;;;;;;;;;;5056270;28;20478;-68
2022/04/22 11:27:53;;;;;;;16.17;14.77;;;;;;;;;;5056291;28;20804;-68
2022/04/22 11:30:19;;;;;;;16.40;15.00;;;;;;;;;;5056205;28;20415;-70
2022/04/22 11:32:48;;;;;;;16.17;14.67;;;;;;;;;;5056263;28;20948;-69
2022/04/22 11:35:22;;;;;;;19.77;14.50;;;;;;;;;;5056316;28;20408;-70
2022/04/22 11:38:01;;;;;;;15.90;14.33;;;;;;;;;;5056167;28;20399;-71
2022/04/22 11:40:27;;;;;;;16.53;15.03;;;;;;;;;;5055753;28;20874;-69
2022/04/22 11:42:58;;;;;;;16.50;14.73;;;;;;;;;;5055947;28;20481;-71
2022/04/22 11:45:24;;;;;;;16.17;14.40;;;;;;;;;;5055944;28;20420;-69
2022/04/22 11:47:50;;;;;;;19.33;13.70;;;;;;;;;;5056030;28;20399;-68
2022/04/22 11:50:20;;;;;;;18.70;15.20;;;;;;;;;;5055993;28;20481;-70
2022/04/22 11:52:59;;;;;;;19.33;15.50;;;;;;;;;;5056246;28;20464;-69
2022/04/22 11:55:25;;;;;;;16.20;14.63;;;;;;;;;;5055851;28;20768;-69
2022/04/22 11:57:51;;;;;;;15.57;14.27;;;;;;;;;;5055851;28;20753;-70
2022/04/22 12:05:51;;;;;;;20.57;15.40;;;;;;;;;;5055910;28;20406;-69
2022/04/22 12:08:17;;;;;;;17.20;15.70;;;;;;;;;;5055590;28;20492;-70
2022/04/22 12:10:45;;;;;;;17.67;15.83;;;;;;;;;;5055552;28;20451;-69
2022/04/22 12:13:13;;;;;;;17.30;15.40;;;;;;;;;;5054268;28;20804;-69
2022/04/22 12:15:42;;;;;;;16.23;14.63;;;;;;;;;;5054305;28;20517;-69
2022/04/22 12:18:08;;;;;;;16.53;15.13;;;;;;;;;;5055407;28;20503;-69
2022/04/22 12:20:34;;;;;;;15.57;14.13;;;;;;;;;;5055500;28;20459;-69
2022/04/22 12:23:00;;;;;;;14.50;13.40;;;;;;;;;;5055390;28;20400;-68
2022/04/22 12:25:26;;;;;;;14.93;13.63;;;;;;;;;;5055235;28;20463;-69
2022/04/22 12:28:13;;;;;;;16.20;14.70;;;;;;;;;;5053906;28;20457;-69
2022/04/22 12:30:40;;;;;;;17.10;15.47;;;;;;;;;;5055228;28;20426;-69
2022/04/22 12:33:08;;;;;;;15.33;13.90;;;;;;;;;;5054976;28;20470;-69
2022/04/22 12:35:34;;;;;;;15.97;14.57;;;;;;;;;;5053740;28;20846;-70
2022/04/22 12:38:05;;;;;;;15.07;13.40;;;;;;;;;;5055278;28;20409;-68
2022/04/22 12:40:34;;;;;;;17.73;16.07;;;;;;;;;;5055190;28;20514;-68
2022/04/22 12:43:20;;;;;;;16.37;14.97;;;;;;;;;;5054816;28;20395;-68
2022/04/22 12:54:05;;;;;;;17.10;15.40;;;;;;;;;;5054223;28;20422;-69
2022/04/22 12:56:31;;;;;;;17.87;16.17;;;;;;;;;;5054904;28;20439;-69
2022/04/22 12:58:59;;;;;;;16.63;15.03;;;;;;;;;;5054485;28;20497;-69
2022/04/22 13:01:26;;;;;;;15.80;14.40;;;;;;;;;;5054513;28;20396;-69
2022/04/22 13:03:52;;;;;;;19.70;15.70;;;;;;;;;;5054416;28;20461;-69
2022/04/22 13:06:37;;;;;;;18.37;15.87;;;;;;;;;;5054420;28;20399;-70
2022/04/22 13:09:03;;;;;;;15.67;14.13;;;;;;;;;;5054286;28;20994;-69
2022/04/22 13:11:29;;;;;;;21.13;15.43;;;;;;;;;;5054293;28;20403;-70
2022/04/22 13:13:55;;;;;;;15.60;14.20;;;;;;;;;;5052961;28;20422;-69
2022/04/22 13:16:21;;;;;;;18.00;16.20;;;;;;;;;;5054179;28;20916;-68
2022/04/22 13:18:47;;;;;;;14.63;13.23;;;;;;;;;;5052837;28;20463;-70
2022/04/22 13:21:13;;;;;;;16.50;14.80;;;;;;;;;;5054204;28;20468;-69
2022/04/22 13:23:39;;;;;;;15.83;14.33;;;;;;;;;;5054423;28;20483;-69
2022/04/22 13:26:05;;;;;;;17.60;15.87;;;;;;;;;;5054031;28;20399;-69
2022/04/22 13:28:31;;;;;;;16.33;14.50;;;;;;;;;;5054053;28;20906;-69
2022/04/22 13:30:57;;;;;;;19.00;15.33;;;;;;;;;;5053966;28;20459;-69
2022/04/22 13:33:24;;;;;;;16.20;14.57;;;;;;;;;;5053942;28;20444;-70
2022/04/22 13:35:50;;;;;;;15.20;14.00;;;;;;;;;;5054036;28;20407;-69
2022/04/22 13:38:16;;;;;;;14.90;13.47;;;;;;;;;;5053955;28;20561;-69
2022/04/22 13:40:42;;;;;;;20.87;14.20;;;;;;;;;;5053763;28;20521;-69
2022/04/22 13:43:08;;;;;;;17.73;13.70;;;;;;;;;;5052452;28;20427;-70
2022/04/22 13:54:08;;;;;;;18.43;14.13;;;;;;;;;;5031472;28;20837;-69
2022/04/22 13:56:34;;;;;;;16.27;14.27;;;;;;;;;;5037939;28;20428;-69
2022/04/22 13:59:00;;;;;;;15.80;14.20;;;;;;;;;;5053268;28;20825;-70
2022/04/22 14:01:26;;;;;;;14.73;13.43;;;;;;;;;;5052089;28;20924;-70
2022/04/22 14:03:52;;;;;;;15.30;13.90;;;;;;;;;;5053441;28;20439;-69
2022/04/22 14:06:18;;;;;;;15.53;14.13;;;;;;;;;;5053483;28;20441;-69
2022/04/22 14:08:44;;;;;;;20.43;13.10;;;;;;;;;;5053227;28;20415;-69
2022/04/22 14:11:10;;;;;;;19.30;14.73;;;;;;;;;;5053357;28;20407;-70
2022/04/22 14:13:36;;;;;;;16.87;15.27;;;;;;;;;;5053293;28;20418;-71
2022/04/22 14:16:02;;;;;;;18.20;13.60;;;;;;;;;;5053357;28;20405;-69
2022/04/22 14:18:31;;;;;;;19.33;14.07;;;;;;;;;;5053217;28;20463;-68
2022/04/22 14:21:00;;;;;;;15.33;13.77;;;;;;;;;;5053553;28;20412;-68
2022/04/22 14:23:26;;;;;;;12.47;11.50;;;;;;;;;;5053227;28;20413;-68
2022/04/22 14:25:56;;;;;;;15.13;13.63;;;;;;;;;;5053038;28;20476;-68
2022/04/22 14:28:25;;;;;;;13.50;12.20;;;;;;;;;;5051840;28;20428;-69
2022/04/22 14:30:52;;;;;;;14.77;13.23;;;;;;;;;;5051854;28;20770;-69
2022/04/22 14:33:18;;;;;;;13.43;12.40;;;;;;;;;;5053286;28;20905;-69
2022/04/22 14:35:44;;;;;;;14.77;13.00;;;;;;;;;;5053294;28;20403;-69
2022/04/22 14:38:10;;;;;;;14.33;12.93;;;;;;;;;;5053075;28;20511;-70
2022/04/22 14:40:36;;;;;;;15.90;12.37;;;;;;;;;;5053019;28;20937;-69
2022/04/22 14:43:03;;;;;;;12.77;11.47;;;;;;;;;;5053030;28;20902;-70
2022/04/22 14:45:29;;;;;;;12.70;11.47;;;;;;;;;;5053125;28;20498;-70
2022/04/22 14:47:56;;;;;;;18.80;12.70;;;;;;;;;;5053099;28;20425;-70
2022/04/22 14:50:22;;;;;;;13.90;12.60;;;;;;;;;;5052955;28;20401;-70
2022/04/22 14:52:48;;;;;;;12.70;11.60;;;;;;;;;;5052937;28;20402;-70
2022/04/22 14:55:15;;;;;;;14.50;13.30;;;;;;;;;;5052827;28;20969;-70
2022/04/22 14:57:41;;;;;;;12.80;11.80;;;;;;;;;;5052997;28;20427;-71
2022/04/22 15:00:08;;;;;;;13.00;11.90;;;;;;;;;;5052812;28;20507;-70
2022/04/22 15:02:34;;;;;;;13.97;12.67;;;;;;;;;;5052964;28;20413;-69
2022/04/22 15:05:00;;;;;;;15.47;12.13;;;;;;;;;;5053029;28;20408;-70
2022/04/22 15:07:29;;;;;;;13.83;12.63;;;;;;;;;;5053244;28;20509;-71
2022/04/22 15:09:55;;;;;;;13.00;11.93;;;;;;;;;;5053049;28;20419;-70
2022/04/22 15:12:22;;;;;;;11.27;10.57;;;;;;;;;;5051626;28;20411;-70
2022/04/22 15:14:48;;;;;;;12.23;11.03;;;;;;;;;;5053111;28;20408;-70
2022/04/22 15:17:14;;;;;;;12.17;10.47;;;;;;;;;;5055451;28;20531;-70
2022/04/22 15:25:09;;;;;;;10.43;9.63;;;;;;;;;;5056501;28;21005;-70
2022/04/22 15:27:36;;;;;;;12.63;10.53;;;;;;;;;;5056432;28;20495;-70
2022/04/22 15:30:02;;;;;;;10.83;10.13;;;;;;;;;;5056587;28;20413;-70
2022/04/22 15:32:28;;;;;;;12.17;9.50;;;;;;;;;;5055105;28;20419;-71
2022/04/22 15:34:54;;;;;;;10.57;9.77;;;;;;;;;;5056362;28;20550;-70
2022/04/22 15:37:21;;;;;;;15.23;13.93;;;;;;;;;;5056203;28;20412;-70
2022/04/22 15:39:49;;;;;;;12.70;10.50;;;;;;;;;;5055981;28;20998;-70
2022/04/22 15:42:15;;;;;;;12.43;10.33;;;;;;;;;;5055997;28;20827;-69
2022/04/22 15:44:48;;;;;;;10.10;9.30;;;;;;;;;;5056137;28;20440;-71
2022/04/22 15:47:14;;;;;;;10.50;9.77;;;;;;;;;;5056265;28;20405;-70
2022/04/22 15:49:40;;;;;;;10.87;9.87;;;;;;;;;;5056121;28;20415;-70
2022/04/22 15:52:11;;;;;;;10.53;9.63;;;;;;;;;;5055862;28;20415;-69